sensor_id;sensor_type;location;lat;lon;timestamp;pressure;altitude;pressure_sealevel;temperature;humidity
77153;BME280;66124;51.146;17.072;2023-03-01T00:02:26;101608.05;;;-2.31;69.45
77153;BME280;66124;51.146;17.072;2023-03-01T00:04:55;101610.05;;;-2.34;69.48
77153;BME280;66124;51.146;17.072;2023-03-01T00:07:24;101612.16;;;-2.35;69.60
77153;BME280;66124;51.146;17.072;2023-03-01T00:09:54;101612.56;;;-2.37;69.56
77153;BME280;66124;51.146;17.072;2023-03-01T00:12:23;101614.04;;;-2.39;69.58
77153;BME280;66124;51.146;17.072;2023-03-01T00:14:53;101614.98;;;-2.40;69.62
77153;BME280;66124;51.146;17.072;2023-03-01T00:17:22;101613.35;;;-2.43;69.79
77153;BME280;66124;51.146;17.072;2023-03-01T00:19:51;101608.98;;;-2.46;69.81
77153;BME280;66124;51.146;17.072;2023-03-01T00:22:21;101605.00;;;-2.49;69.94
77153;BME280;66124;51.146;17.072;2023-03-01T00:24:50;101604.61;;;-2.52;70.04
77153;BME280;66124;51.146;17.072;2023-03-01T00:27:20;101607.27;;;-2.54;70.20
77153;BME280;66124;51.146;17.072;2023-03-01T00:29:49;101604.60;;;-2.56;70.21
77153;BME280;66124;51.146;17.072;2023-03-01T00:32:19;101600.60;;;-2.59;70.43
77153;BME280;66124;51.146;17.072;2023-03-01T00:34:48;101596.13;;;-2.63;70.76
77153;BME280;66124;51.146;17.072;2023-03-01T00:37:17;101598.80;;;-2.65;70.65
77153;BME280;66124;51.146;17.072;2023-03-01T00:39:47;101593.02;;;-2.67;70.63
77153;BME280;66124;51.146;17.072;2023-03-01T00:42:16;101589.02;;;-2.70;70.64
77153;BME280;66124;51.146;17.072;2023-03-01T00:44:45;101584.36;;;-2.74;70.82
77153;BME280;66124;51.146;17.072;2023-03-01T00:47:15;101579.05;;;-2.75;70.97
77153;BME280;66124;51.146;17.072;2023-03-01T00:49:44;101576.85;;;-2.76;71.01
77153;BME280;66124;51.146;17.072;2023-03-01T00:52:13;101570.17;;;-2.77;71.17
77153;BME280;66124;51.146;17.072;2023-03-01T00:54:43;101568.53;;;-2.78;71.22
77153;BME280;66124;51.146;17.072;2023-03-01T00:57:12;101568.73;;;-2.79;71.36
77153;BME280;66124;51.146;17.072;2023-03-01T00:59:42;101562.74;;;-2.80;71.51
77153;BME280;66124;51.146;17.072;2023-03-01T01:02:11;101562.59;;;-2.81;71.36
77153;BME280;66124;51.146;17.072;2023-03-01T01:04:40;101564.84;;;-2.81;71.34
77153;BME280;66124;51.146;17.072;2023-03-01T01:07:10;101569.20;;;-2.83;71.35
77153;BME280;66124;51.146;17.072;2023-03-01T01:09:39;101571.29;;;-2.83;71.33
77153;BME280;66124;51.146;17.072;2023-03-01T01:12:09;101575.81;;;-2.84;71.31
77153;BME280;66124;51.146;17.072;2023-03-01T01:17:44;101566.84;;;-2.84;71.18
77153;BME280;66124;51.146;17.072;2023-03-01T01:20:14;101561.91;;;-2.89;71.49
77153;BME280;66124;51.146;17.072;2023-03-01T01:22:43;101554.28;;;-2.92;71.44
77153;BME280;66124;51.146;17.072;2023-03-01T01:25:13;101552.43;;;-2.93;71.67
77153;BME280;66124;51.146;17.072;2023-03-01T01:27:42;101538.05;;;-3.03;71.86
77153;BME280;66124;51.146;17.072;2023-03-01T01:30:14;101550.52;;;-2.97;71.87
77153;BME280;66124;51.146;17.072;2023-03-01T01:32:43;101553.48;;;-2.98;71.94
77153;BME280;66124;51.146;17.072;2023-03-01T01:35:12;101545.61;;;-2.99;71.95
77153;BME280;66124;51.146;17.072;2023-03-01T01:37:42;101528.05;;;-3.07;72.02
77153;BME280;66124;51.146;17.072;2023-03-01T01:40:14;101541.44;;;-2.98;72.17
77153;BME280;66124;51.146;17.072;2023-03-01T01:42:43;101547.27;;;-2.97;72.08
77153;BME280;66124;51.146;17.072;2023-03-01T01:45:34;101548.48;;;-2.97;72.28
77153;BME280;66124;51.146;17.072;2023-03-01T01:48:06;101549.52;;;-2.97;72.16
77153;BME280;66124;51.146;17.072;2023-03-01T01:50:40;101539.80;;;-3.00;72.30
77153;BME280;66124;51.146;17.072;2023-03-01T01:53:13;101534.92;;;-3.02;72.34
77153;BME280;66124;51.146;17.072;2023-03-01T01:55:49;101524.19;;;-3.05;72.20
77153;BME280;66124;51.146;17.072;2023-03-01T01:58:21;101526.16;;;-3.07;72.29
77153;BME280;66124;51.146;17.072;2023-03-01T02:00:51;101529.71;;;-3.10;72.24
77153;BME280;66124;51.146;17.072;2023-03-01T02:03:24;101529.97;;;-3.12;72.32
77153;BME280;66124;51.146;17.072;2023-03-01T02:05:58;101523.58;;;-3.15;72.59
77153;BME280;66124;51.146;17.072;2023-03-01T02:08:31;101525.13;;;-3.19;72.82
77153;BME280;66124;51.146;17.072;2023-03-01T02:11:01;101525.09;;;-3.23;73.03
77153;BME280;66124;51.146;17.072;2023-03-01T02:13:31;101529.61;;;-3.24;73.06
77153;BME280;66124;51.146;17.072;2023-03-01T02:16:04;101526.55;;;-3.25;73.17
77153;BME280;66124;51.146;17.072;2023-03-01T02:18:34;101526.06;;;-3.26;73.10
77153;BME280;66124;51.146;17.072;2023-03-01T02:21:13;101521.45;;;-3.27;73.10
77153;BME280;66124;51.146;17.072;2023-03-01T02:23:47;101521.15;;;-3.28;73.32
77153;BME280;66124;51.146;17.072;2023-03-01T02:26:23;101520.15;;;-3.28;73.39
77153;BME280;66124;51.146;17.072;2023-03-01T02:28:54;101522.46;;;-3.30;73.20
77153;BME280;66124;51.146;17.072;2023-03-01T02:38:00;101525.65;;;-3.33;72.97
77153;BME280;66124;51.146;17.072;2023-03-01T02:40:31;101526.53;;;-3.37;72.98
77153;BME280;66124;51.146;17.072;2023-03-01T02:43:04;101526.95;;;-3.39;72.89
77153;BME280;66124;51.146;17.072;2023-03-01T02:45:37;101532.19;;;-3.41;72.82
77153;BME280;66124;51.146;17.072;2023-03-01T02:48:07;101533.64;;;-3.43;73.12
77153;BME280;66124;51.146;17.072;2023-03-01T02:50:54;101534.56;;;-3.45;73.28
77153;BME280;66124;51.146;17.072;2023-03-01T02:53:34;101531.69;;;-3.46;73.35
77153;BME280;66124;51.146;17.072;2023-03-01T02:56:08;101536.39;;;-3.48;73.19
77153;BME280;66124;51.146;17.072;2023-03-01T02:58:38;101535.72;;;-3.48;73.10
77153;BME280;66124;51.146;17.072;2023-03-01T03:01:07;101537.65;;;-3.49;73.19
77153;BME280;66124;51.146;17.072;2023-03-01T03:03:36;101538.73;;;-3.50;73.22
77153;BME280;66124;51.146;17.072;2023-03-01T03:06:06;101535.97;;;-3.50;73.13
77153;BME280;66124;51.146;17.072;2023-03-01T03:08:35;101531.54;;;-3.51;73.14
77153;BME280;66124;51.146;17.072;2023-03-01T03:11:05;101534.72;;;-3.54;73.08
77153;BME280;66124;51.146;17.072;2023-03-01T03:13:34;101530.88;;;-3.57;73.02
77153;BME280;66124;51.146;17.072;2023-03-01T03:16:05;101528.44;;;-3.60;73.12
77153;BME280;66124;51.146;17.072;2023-03-01T03:18:34;101530.41;;;-3.62;73.01
77153;BME280;66124;51.146;17.072;2023-03-01T03:21:04;101531.19;;;-3.65;72.86
77153;BME280;66124;51.146;17.072;2023-03-01T03:23:36;101531.10;;;-3.67;72.96
77153;BME280;66124;51.146;17.072;2023-03-01T03:26:07;101527.09;;;-3.70;73.02
77153;BME280;66124;51.146;17.072;2023-03-01T03:28:36;101519.80;;;-3.73;73.05
77153;BME280;66124;51.146;17.072;2023-03-01T03:31:07;101522.62;;;-3.74;73.17
77153;BME280;66124;51.146;17.072;2023-03-01T03:33:36;101523.36;;;-3.76;73.29
77153;BME280;66124;51.146;17.072;2023-03-01T03:36:07;101516.31;;;-3.76;73.26
77153;BME280;66124;51.146;17.072;2023-03-01T03:38:36;101512.73;;;-3.77;73.49
77153;BME280;66124;51.146;17.072;2023-03-01T03:41:08;101509.31;;;-3.77;73.55
77153;BME280;66124;51.146;17.072;2023-03-01T03:43:40;101508.64;;;-3.78;73.61
77153;BME280;66124;51.146;17.072;2023-03-01T03:46:10;101507.13;;;-3.78;73.69
77153;BME280;66124;51.146;17.072;2023-03-01T03:48:39;101504.37;;;-3.78;73.96
77153;BME280;66124;51.146;17.072;2023-03-01T03:57:35;101489.98;;;-3.74;73.91
77153;BME280;66124;51.146;17.072;2023-03-01T04:00:06;101490.54;;;-3.76;73.96
77153;BME280;66124;51.146;17.072;2023-03-01T04:02:36;101493.48;;;-3.76;73.79
77153;BME280;66124;51.146;17.072;2023-03-01T04:05:07;101487.70;;;-3.78;73.68
77153;BME280;66124;51.146;17.072;2023-03-01T04:07:38;101483.61;;;-3.79;73.68
77153;BME280;66124;51.146;17.072;2023-03-01T04:10:11;101489.52;;;-3.81;73.60
77153;BME280;66124;51.146;17.072;2023-03-01T04:12:40;101488.73;;;-3.82;73.48
77153;BME280;66124;51.146;17.072;2023-03-01T04:15:11;101484.61;;;-3.86;73.30
77153;BME280;66124;51.146;17.072;2023-03-01T04:17:41;101483.54;;;-3.90;73.37
77153;BME280;66124;51.146;17.072;2023-03-01T04:20:13;101487.80;;;-3.94;73.35
77153;BME280;66124;51.146;17.072;2023-03-01T04:22:43;101487.33;;;-3.95;73.56
77153;BME280;66124;51.146;17.072;2023-03-01T04:25:13;101488.55;;;-3.96;73.76
77153;BME280;66124;51.146;17.072;2023-03-01T04:27:43;101483.98;;;-3.97;73.85
77153;BME280;66124;51.146;17.072;2023-03-01T04:30:13;101485.02;;;-3.97;73.82
77153;BME280;66124;51.146;17.072;2023-03-01T04:32:43;101488.34;;;-3.99;73.90
77153;BME280;66124;51.146;17.072;2023-03-01T04:35:12;101487.92;;;-4.02;73.48
77153;BME280;66124;51.146;17.072;2023-03-01T04:37:41;101484.59;;;-4.04;73.52
77153;BME280;66124;51.146;17.072;2023-03-01T04:40:12;101484.56;;;-4.08;73.57
77153;BME280;66124;51.146;17.072;2023-03-01T04:42:42;101476.73;;;-4.10;73.65
77153;BME280;66124;51.146;17.072;2023-03-01T04:45:13;101480.27;;;-4.13;73.74
77153;BME280;66124;51.146;17.072;2023-03-01T04:47:45;101481.02;;;-4.14;73.85
77153;BME280;66124;51.146;17.072;2023-03-01T04:50:16;101490.17;;;-4.16;73.84
77153;BME280;66124;51.146;17.072;2023-03-01T04:52:46;101492.11;;;-4.17;73.91
77153;BME280;66124;51.146;17.072;2023-03-01T04:55:16;101495.23;;;-4.18;73.82
77153;BME280;66124;51.146;17.072;2023-03-01T04:57:45;101490.16;;;-4.20;73.84
77153;BME280;66124;51.146;17.072;2023-03-01T05:00:16;101490.71;;;-4.21;73.92
77153;BME280;66124;51.146;17.072;2023-03-01T05:02:45;101495.27;;;-4.24;74.12
77153;BME280;66124;51.146;17.072;2023-03-01T05:05:15;101492.41;;;-4.26;74.02
77153;BME280;66124;51.146;17.072;2023-03-01T05:07:44;101497.92;;;-4.26;74.04
77153;BME280;66124;51.146;17.072;2023-03-01T05:10:12;101492.27;;;-4.26;73.91
77153;BME280;66124;51.146;17.072;2023-03-01T05:19:27;101495.13;;;-4.20;73.77
77153;BME280;66124;51.146;17.072;2023-03-01T05:21:54;101493.09;;;-4.26;73.67
77153;BME280;66124;51.146;17.072;2023-03-01T05:24:21;101497.59;;;-4.27;73.66
77153;BME280;66124;51.146;17.072;2023-03-01T05:26:49;101497.61;;;-4.28;73.61
77153;BME280;66124;51.146;17.072;2023-03-01T05:29:16;101495.23;;;-4.28;73.75
77153;BME280;66124;51.146;17.072;2023-03-01T05:31:43;101491.80;;;-4.28;73.97
77153;BME280;66124;51.146;17.072;2023-03-01T05:34:10;101491.98;;;-4.28;74.13
77153;BME280;66124;51.146;17.072;2023-03-01T05:36:38;101484.23;;;-4.28;74.05
77153;BME280;66124;51.146;17.072;2023-03-01T05:39:04;101484.38;;;-4.27;74.22
77153;BME280;66124;51.146;17.072;2023-03-01T05:41:31;101492.77;;;-4.26;74.47
77153;BME280;66124;51.146;17.072;2023-03-01T05:50:36;101495.92;;;-4.14;73.99
77153;BME280;66124;51.146;17.072;2023-03-01T05:53:06;101498.42;;;-4.17;73.99
77153;BME280;66124;51.146;17.072;2023-03-01T05:55:37;101501.02;;;-4.17;74.05
77153;BME280;66124;51.146;17.072;2023-03-01T05:58:09;101499.00;;;-4.18;74.03
77153;BME280;66124;51.146;17.072;2023-03-01T06:00:39;101499.68;;;-4.18;74.03
77153;BME280;66124;51.146;17.072;2023-03-01T06:03:11;101499.52;;;-4.18;74.02
77153;BME280;66124;51.146;17.072;2023-03-01T06:05:41;101507.71;;;-4.17;73.99
77153;BME280;66124;51.146;17.072;2023-03-01T06:08:12;101510.05;;;-4.15;73.97
77153;BME280;66124;51.146;17.072;2023-03-01T06:10:42;101506.36;;;-4.12;73.85
77153;BME280;66124;51.146;17.072;2023-03-01T06:13:11;101506.92;;;-4.10;73.88
77153;BME280;66124;51.146;17.072;2023-03-01T06:15:41;101506.69;;;-4.08;73.86
77153;BME280;66124;51.146;17.072;2023-03-01T06:18:11;101509.97;;;-4.03;73.89
77153;BME280;66124;51.146;17.072;2023-03-01T06:20:40;101507.89;;;-3.98;73.86
77153;BME280;66124;51.146;17.072;2023-03-01T06:23:09;101497.92;;;-3.93;73.71
77153;BME280;66124;51.146;17.072;2023-03-01T06:25:38;101492.05;;;-3.88;73.86
77153;BME280;66124;51.146;17.072;2023-03-01T06:28:08;101489.93;;;-3.82;73.76
77153;BME280;66124;51.146;17.072;2023-03-01T06:30:37;101488.40;;;-3.78;73.69
77153;BME280;66124;51.146;17.072;2023-03-01T06:33:06;101487.40;;;-3.70;73.95
77153;BME280;66124;51.146;17.072;2023-03-01T06:35:36;101486.34;;;-3.51;74.07
77153;BME280;66124;51.146;17.072;2023-03-01T06:38:06;101484.58;;;-3.28;74.13
77153;BME280;66124;51.146;17.072;2023-03-01T06:40:36;101480.98;;;-3.04;74.09
77153;BME280;66124;51.146;17.072;2023-03-01T06:43:05;101476.98;;;-2.70;74.14
77153;BME280;66124;51.146;17.072;2023-03-01T06:45:35;101472.27;;;-2.41;74.07
77153;BME280;66124;51.146;17.072;2023-03-01T06:48:07;101467.45;;;-2.14;73.94
77153;BME280;66124;51.146;17.072;2023-03-01T06:50:36;101471.18;;;-1.79;73.64
77153;BME280;66124;51.146;17.072;2023-03-01T06:53:06;101467.61;;;-1.54;73.46
77153;BME280;66124;51.146;17.072;2023-03-01T06:55:35;101469.77;;;-1.35;73.20
77153;BME280;66124;51.146;17.072;2023-03-01T06:58:04;101477.71;;;-1.07;73.02
77153;BME280;66124;51.146;17.072;2023-03-01T07:00:32;101483.85;;;-0.85;72.57
77153;BME280;66124;51.146;17.072;2023-03-01T07:08:21;101483.85;;;-0.28;71.62
77153;BME280;66124;51.146;17.072;2023-03-01T07:10:56;101486.96;;;-0.18;71.42
77153;BME280;66124;51.146;17.072;2023-03-01T07:13:25;101491.17;;;-0.09;71.11
77153;BME280;66124;51.146;17.072;2023-03-01T07:15:55;101486.17;;;-0.03;71.01
77153;BME280;66124;51.146;17.072;2023-03-01T07:18:24;101490.23;;;0.02;70.93
77153;BME280;66124;51.146;17.072;2023-03-01T07:20:54;101490.41;;;0.05;70.80
77153;BME280;66124;51.146;17.072;2023-03-01T07:23:23;101489.16;;;0.09;70.72
77153;BME280;66124;51.146;17.072;2023-03-01T07:25:56;101485.88;;;0.13;70.49
77153;BME280;66124;51.146;17.072;2023-03-01T07:28:25;101480.77;;;0.17;70.41
77153;BME280;66124;51.146;17.072;2023-03-01T07:30:58;101473.73;;;0.22;70.33
77153;BME280;66124;51.146;17.072;2023-03-01T07:33:30;101475.95;;;0.30;70.13
77153;BME280;66124;51.146;17.072;2023-03-01T07:36:01;101475.77;;;0.32;70.20
77153;BME280;66124;51.146;17.072;2023-03-01T07:38:31;101480.15;;;0.35;69.92
77153;BME280;66124;51.146;17.072;2023-03-01T07:41:01;101476.69;;;0.38;69.92
77153;BME280;66124;51.146;17.072;2023-03-01T07:43:31;101470.62;;;0.41;69.85
77153;BME280;66124;51.146;17.072;2023-03-01T07:46:01;101474.47;;;0.46;69.90
77153;BME280;66124;51.146;17.072;2023-03-01T07:48:31;101475.39;;;0.51;69.78
77153;BME280;66124;51.146;17.072;2023-03-01T07:51:02;101481.55;;;0.59;69.56
77153;BME280;66124;51.146;17.072;2023-03-01T07:53:33;101480.17;;;0.68;69.54
77153;BME280;66124;51.146;17.072;2023-03-01T07:56:05;101478.77;;;0.78;69.33
77153;BME280;66124;51.146;17.072;2023-03-01T07:58:35;101463.80;;;0.79;69.10
77153;BME280;66124;51.146;17.072;2023-03-01T08:01:05;101470.26;;;0.93;68.97
77153;BME280;66124;51.146;17.072;2023-03-01T08:03:36;101461.71;;;1.03;68.55
77153;BME280;66124;51.146;17.072;2023-03-01T08:06:07;101459.59;;;1.13;68.19
77153;BME280;66124;51.146;17.072;2023-03-01T08:08:37;101457.18;;;1.18;68.10
77153;BME280;66124;51.146;17.072;2023-03-01T08:11:10;101456.27;;;1.25;67.71
77153;BME280;66124;51.146;17.072;2023-03-01T08:13:40;101455.96;;;1.33;67.58
77153;BME280;66124;51.146;17.072;2023-03-01T08:16:12;101456.16;;;1.41;67.27
77153;BME280;66124;51.146;17.072;2023-03-01T08:18:43;101462.44;;;1.52;67.11
77153;BME280;66124;51.146;17.072;2023-03-01T08:21:11;101464.55;;;1.63;66.82
77153;BME280;66124;51.146;17.072;2023-03-01T08:28:06;101458.79;;;1.94;66.17
77153;BME280;66124;51.146;17.072;2023-03-01T08:30:36;101456.49;;;2.03;65.66
77153;BME280;66124;51.146;17.072;2023-03-01T08:33:05;101449.58;;;2.12;65.23
77153;BME280;66124;51.146;17.072;2023-03-01T08:35:35;101455.06;;;2.18;65.32
77153;BME280;66124;51.146;17.072;2023-03-01T08:38:04;101455.52;;;2.22;65.52
77153;BME280;66124;51.146;17.072;2023-03-01T08:40:35;101452.17;;;2.23;65.59
77153;BME280;66124;51.146;17.072;2023-03-01T08:43:04;101456.34;;;2.26;65.35
77153;BME280;66124;51.146;17.072;2023-03-01T08:45:33;101460.25;;;2.29;65.30
77153;BME280;66124;51.146;17.072;2023-03-01T08:48:03;101466.91;;;2.31;65.46
77153;BME280;66124;51.146;17.072;2023-03-01T08:50:32;101467.76;;;2.31;65.10
77153;BME280;66124;51.146;17.072;2023-03-01T08:53:01;101465.61;;;2.32;64.92
77153;BME280;66124;51.146;17.072;2023-03-01T08:55:31;101467.83;;;2.36;64.45
77153;BME280;66124;51.146;17.072;2023-03-01T08:58:00;101464.83;;;2.39;64.19
77153;BME280;66124;51.146;17.072;2023-03-01T09:00:29;101463.48;;;2.41;64.39
77153;BME280;66124;51.146;17.072;2023-03-01T09:02:58;101458.63;;;2.44;64.40
77153;BME280;66124;51.146;17.072;2023-03-01T09:05:28;101456.39;;;2.44;64.01
77153;BME280;66124;51.146;17.072;2023-03-01T09:08:00;101449.00;;;2.45;63.96
77153;BME280;66124;51.146;17.072;2023-03-01T09:10:29;101447.38;;;2.46;63.74
77153;BME280;66124;51.146;17.072;2023-03-01T09:12:58;101437.45;;;2.41;63.69
77153;BME280;66124;51.146;17.072;2023-03-01T09:15:28;101446.16;;;2.49;63.44
77153;BME280;66124;51.146;17.072;2023-03-01T09:17:57;101448.05;;;2.52;63.10
77153;BME280;66124;51.146;17.072;2023-03-01T09:20:27;101449.91;;;2.58;62.98
77153;BME280;66124;51.146;17.072;2023-03-01T09:22:56;101446.54;;;2.64;62.87
77153;BME280;66124;51.146;17.072;2023-03-01T09:25:25;101443.87;;;2.70;62.76
77153;BME280;66124;51.146;17.072;2023-03-01T09:27:55;101437.54;;;2.77;62.55
77153;BME280;66124;51.146;17.072;2023-03-01T09:30:25;101439.88;;;2.86;62.08
77153;BME280;66124;51.146;17.072;2023-03-01T09:32:55;101441.94;;;2.92;61.65
77153;BME280;66124;51.146;17.072;2023-03-01T09:35:25;101442.55;;;2.96;61.63
77153;BME280;66124;51.146;17.072;2023-03-01T09:37:53;101440.06;;;2.99;61.16
77153;BME280;66124;51.146;17.072;2023-03-01T09:40:21;101440.61;;;3.04;61.15
77153;BME280;66124;51.146;17.072;2023-03-01T09:50:24;101428.25;;;3.17;59.60
77153;BME280;66124;51.146;17.072;2023-03-01T09:53:01;101427.66;;;3.13;59.61
77153;BME280;66124;51.146;17.072;2023-03-01T09:55:37;101430.06;;;3.14;59.72
77153;BME280;66124;51.146;17.072;2023-03-01T09:58:34;101430.98;;;3.15;59.60
77153;BME280;66124;51.146;17.072;2023-03-01T10:01:15;101441.01;;;3.19;59.40
77153;BME280;66124;51.146;17.072;2023-03-01T10:04:03;101436.85;;;3.23;59.16
77153;BME280;66124;51.146;17.072;2023-03-01T10:06:35;101436.71;;;3.28;59.10
77153;BME280;66124;51.146;17.072;2023-03-01T10:09:07;101437.70;;;3.31;58.64
77153;BME280;66124;51.146;17.072;2023-03-01T10:11:43;101435.48;;;3.33;58.38
77153;BME280;66124;51.146;17.072;2023-03-01T10:14:23;101432.23;;;3.37;58.09
77153;BME280;66124;51.146;17.072;2023-03-01T10:16:59;101428.14;;;3.44;58.09
77153;BME280;66124;51.146;17.072;2023-03-01T10:19:36;101428.41;;;3.53;57.83
77153;BME280;66124;51.146;17.072;2023-03-01T10:22:17;101420.66;;;3.62;57.69
77153;BME280;66124;51.146;17.072;2023-03-01T10:24:47;101418.46;;;3.71;57.89
77153;BME280;66124;51.146;17.072;2023-03-01T10:27:23;101412.91;;;3.78;57.56
77153;BME280;66124;51.146;17.072;2023-03-01T10:29:57;101410.23;;;3.84;56.93
77153;BME280;66124;51.146;17.072;2023-03-01T10:32:31;101404.50;;;3.86;56.71
77153;BME280;66124;51.146;17.072;2023-03-01T10:35:00;101399.87;;;3.93;55.91
77153;BME280;66124;51.146;17.072;2023-03-01T10:37:30;101396.45;;;3.97;55.38
77153;BME280;66124;51.146;17.072;2023-03-01T10:40:03;101392.27;;;4.11;55.13
77153;BME280;66124;51.146;17.072;2023-03-01T10:42:35;101393.70;;;4.27;54.63
77153;BME280;66124;51.146;17.072;2023-03-01T10:45:22;101393.23;;;4.46;55.02
77153;BME280;66124;51.146;17.072;2023-03-01T10:48:08;101391.88;;;4.75;54.39
77153;BME280;66124;51.146;17.072;2023-03-01T10:50:40;101393.90;;;4.99;53.97
77153;BME280;66124;51.146;17.072;2023-03-01T10:53:27;101396.63;;;5.19;54.09
77153;BME280;66124;51.146;17.072;2023-03-01T10:56:02;101394.56;;;5.34;53.53
77153;BME280;66124;51.146;17.072;2023-03-01T10:58:31;101391.30;;;5.51;53.14
77153;BME280;66124;51.146;17.072;2023-03-01T11:01:03;101390.19;;;5.72;52.88
77153;BME280;66124;51.146;17.072;2023-03-01T11:06:23;101382.45;;;6.32;52.01
77153;BME280;66124;51.146;17.072;2023-03-01T11:08:52;101374.95;;;6.49;51.69
77153;BME280;66124;51.146;17.072;2023-03-01T11:11:25;101371.41;;;6.78;51.16
77153;BME280;66124;51.146;17.072;2023-03-01T11:14:00;101366.49;;;7.14;50.49
77153;BME280;66124;51.146;17.072;2023-03-01T11:16:34;101360.56;;;7.42;49.85
77153;BME280;66124;51.146;17.072;2023-03-01T11:19:20;101362.02;;;7.65;49.33
77153;BME280;66124;51.146;17.072;2023-03-01T11:22:01;101364.84;;;7.85;48.57
77153;BME280;66124;51.146;17.072;2023-03-01T11:24:36;101360.59;;;7.90;48.27
77153;BME280;66124;51.146;17.072;2023-03-01T11:27:14;101369.88;;;8.07;48.25
77153;BME280;66124;51.146;17.072;2023-03-01T11:29:46;101368.21;;;8.44;47.78
77153;BME280;66124;51.146;17.072;2023-03-01T11:32:19;101365.95;;;8.81;47.33
77153;BME280;66124;51.146;17.072;2023-03-01T11:34:55;101363.80;;;9.18;47.05
77153;BME280;66124;51.146;17.072;2023-03-01T11:37:35;101357.97;;;9.66;46.39
77153;BME280;66124;51.146;17.072;2023-03-01T11:40:13;101359.15;;;10.13;45.78
77153;BME280;66124;51.146;17.072;2023-03-01T11:43:01;101359.33;;;10.63;45.08
77153;BME280;66124;51.146;17.072;2023-03-01T11:45:42;101354.09;;;11.13;43.93
77153;BME280;66124;51.146;17.072;2023-03-01T11:48:33;101354.40;;;11.63;43.71
77153;BME280;66124;51.146;17.072;2023-03-01T11:51:09;101354.00;;;11.85;42.27
77153;BME280;66124;51.146;17.072;2023-03-01T11:53:56;101356.24;;;11.85;41.53
77153;BME280;66124;51.146;17.072;2023-03-01T11:56:32;101356.97;;;11.84;41.53
77153;BME280;66124;51.146;17.072;2023-03-01T11:59:25;101349.15;;;12.10;41.61
77153;BME280;66124;51.146;17.072;2023-03-01T12:04:57;101342.84;;;12.27;39.88
77153;BME280;66124;51.146;17.072;2023-03-01T12:07:39;101346.81;;;12.23;38.72
77153;BME280;66124;51.146;17.072;2023-03-01T12:10:25;101342.71;;;12.30;38.66
77153;BME280;66124;51.146;17.072;2023-03-01T12:15:58;101334.88;;;12.66;37.88
77153;BME280;66124;51.146;17.072;2023-03-01T12:19:01;101329.69;;;12.88;36.94
77153;BME280;66124;51.146;17.072;2023-03-01T12:27:54;101308.83;;;14.01;35.48
77153;BME280;66124;51.146;17.072;2023-03-01T12:30:36;101313.19;;;14.65;34.94
77153;BME280;66124;51.146;17.072;2023-03-01T12:33:22;101304.80;;;15.36;34.25
77153;BME280;66124;51.146;17.072;2023-03-01T12:38:49;101310.84;;;16.38;33.15
77153;BME280;66124;51.146;17.072;2023-03-01T12:41:46;101306.73;;;16.85;32.39
77153;BME280;66124;51.146;17.072;2023-03-01T12:44:29;101302.49;;;17.38;31.30
77153;BME280;66124;51.146;17.072;2023-03-01T12:47:11;101295.30;;;17.90;30.79
77153;BME280;66124;51.146;17.072;2023-03-01T12:49:44;101286.63;;;18.42;30.16
77153;BME280;66124;51.146;17.072;2023-03-01T12:52:18;101285.46;;;18.91;29.78
77153;BME280;66124;51.146;17.072;2023-03-01T12:54:50;101276.45;;;19.30;29.69
77153;BME280;66124;51.146;17.072;2023-03-01T12:57:28;101273.84;;;19.47;29.36
77153;BME280;66124;51.146;17.072;2023-03-01T13:00:08;101273.46;;;19.51;28.94
77153;BME280;66124;51.146;17.072;2023-03-01T13:02:45;101273.51;;;19.50;28.51
77153;BME280;66124;51.146;17.072;2023-03-01T13:05:26;101270.00;;;19.61;28.30
77153;BME280;66124;51.146;17.072;2023-03-01T13:08:02;101267.16;;;19.93;28.00
77153;BME280;66124;51.146;17.072;2023-03-01T13:10:42;101267.02;;;20.15;27.88
77153;BME280;66124;51.146;17.072;2023-03-01T13:13:20;101263.31;;;20.08;27.69
77153;BME280;66124;51.146;17.072;2023-03-01T13:15:51;101262.59;;;20.05;27.82
77153;BME280;66124;51.146;17.072;2023-03-01T13:18:32;101260.80;;;20.16;27.72
77153;BME280;66124;51.146;17.072;2023-03-01T13:21:03;101264.69;;;20.19;27.65
77153;BME280;66124;51.146;17.072;2023-03-01T13:23:36;101269.77;;;20.41;27.71
77153;BME280;66124;51.146;17.072;2023-03-01T13:26:17;101268.45;;;20.59;27.30
77153;BME280;66124;51.146;17.072;2023-03-01T13:28:57;101266.23;;;20.53;26.95
77153;BME280;66124;51.146;17.072;2023-03-01T13:31:58;101260.29;;;20.53;26.75
77153;BME280;66124;51.146;17.072;2023-03-01T13:34:49;101253.77;;;20.59;26.57
77153;BME280;66124;51.146;17.072;2023-03-01T13:37:38;101254.34;;;20.33;26.38
77153;BME280;66124;51.146;17.072;2023-03-01T13:45:38;101248.28;;;19.56;26.62
77153;BME280;66124;51.146;17.072;2023-03-01T13:48:15;101248.52;;;19.52;26.57
77153;BME280;66124;51.146;17.072;2023-03-01T13:50:52;101241.13;;;19.64;26.37
77153;BME280;66124;51.146;17.072;2023-03-01T13:53:24;101239.16;;;19.85;26.28
77153;BME280;66124;51.146;17.072;2023-03-01T13:55:58;101238.36;;;20.18;26.17
77153;BME280;66124;51.146;17.072;2023-03-01T13:58:30;101235.44;;;20.56;26.00
77153;BME280;66124;51.146;17.072;2023-03-01T14:01:02;101239.59;;;20.82;25.83
77153;BME280;66124;51.146;17.072;2023-03-01T14:03:33;101227.88;;;20.87;25.56
77153;BME280;66124;51.146;17.072;2023-03-01T14:06:13;101223.09;;;21.04;25.17
77153;BME280;66124;51.146;17.072;2023-03-01T14:08:44;101219.65;;;20.97;24.84
77153;BME280;66124;51.146;17.072;2023-03-01T14:14:33;101206.87;;;21.55;24.36
77153;BME280;66124;51.146;17.072;2023-03-01T14:17:20;101203.13;;;21.81;24.36
77153;BME280;66124;51.146;17.072;2023-03-01T14:19:59;101204.16;;;21.68;24.14
77153;BME280;66124;51.146;17.072;2023-03-01T14:22:31;101199.49;;;21.80;24.11
77153;BME280;66124;51.146;17.072;2023-03-01T14:25:04;101197.49;;;21.93;24.04